createdAt,value
2022-08-18T00:00:24.015Z,69.57
2022-08-18T00:01:25.930Z,71.63
2022-08-18T00:02:31.770Z,74.47
2022-08-18T00:03:57.394Z,71.77
2022-08-18T00:04:58.341Z,74.13
2022-08-18T00:06:01.437Z,75.80
2022-08-18T00:07:04.104Z,79.13
2022-08-18T00:08:06.642Z,74.57
2022-08-18T00:09:10.844Z,74.33
2022-08-18T00:10:15.598Z,80.07
2022-08-18T00:11:22.233Z,77.73
2022-08-18T00:12:26.377Z,76.70
2022-08-18T00:13:29.089Z,74.83
2022-08-18T00:14:31.089Z,78.73
2022-08-18T00:15:48.736Z,81.03
2022-08-18T00:16:53.350Z,78.13
2022-08-18T00:17:55.910Z,83.00
2022-08-18T00:18:57.698Z,75.83
2022-08-18T00:20:00.585Z,74.10
2022-08-18T00:21:03.537Z,74.23
2022-08-18T00:22:06.680Z,79.47
2022-08-18T00:23:08.801Z,82.37
2022-08-18T00:24:11.387Z,85.03
2022-08-18T00:25:16.481Z,77.67
2022-08-18T00:26:19.020Z,82.97
2022-08-18T00:27:23.221Z,78.00
2022-08-18T00:28:26.337Z,79.13
2022-08-18T00:29:28.180Z,79.07
2022-08-18T00:30:30.696Z,77.57
2022-08-18T00:31:33.093Z,80.43
2022-08-18T00:32:39.417Z,83.57
2022-08-18T00:33:40.972Z,84.17
2022-08-18T00:34:44.049Z,81.20
2022-08-18T00:35:45.672Z,78.67
2022-08-18T00:36:50.150Z,78.80
2022-08-18T00:37:52.080Z,78.30
2022-08-18T00:38:54.930Z,83.00
2022-08-18T00:39:57.518Z,80.87
2022-08-18T00:40:59.201Z,84.27
2022-08-18T00:42:13.685Z,80.83
2022-08-18T00:43:34.411Z,79.00
2022-08-18T00:45:28.114Z,83.70
2022-08-18T00:46:33.247Z,87.87
2022-08-18T00:47:42.468Z,89.70
2022-08-18T00:48:48.538Z,93.63
2022-08-18T00:49:54.165Z,96.33
2022-08-18T00:50:57.699Z,89.53
2022-08-18T00:52:02.697Z,81.07
2022-08-18T00:53:09.299Z,82.07
2022-08-18T00:54:16.616Z,76.20
2022-08-18T00:55:19.406Z,70.10
2022-08-18T00:56:26.371Z,70.93
2022-08-18T00:57:29.280Z,67.63
2022-08-18T00:58:37.174Z,67.07
2022-08-18T00:59:45.373Z,64.10
2022-08-18T01:00:50.553Z,67.90
2022-08-18T01:01:55.599Z,69.33
2022-08-18T01:03:03.896Z,66.93
2022-08-18T01:04:09.712Z,64.77
2022-08-18T01:05:18.897Z,70.80
2022-08-18T01:06:26.689Z,67.57
2022-08-18T01:07:36.587Z,68.50
2022-08-18T01:08:38.641Z,65.40
2022-08-18T01:09:43.545Z,69.70
2022-08-18T01:10:45.578Z,78.63
2022-08-18T01:11:48.548Z,76.13
2022-08-18T01:12:53.273Z,81.50
2022-08-18T01:14:00.142Z,79.47
2022-08-18T01:15:02.095Z,78.10
2022-08-18T01:16:25.737Z,85.10
2022-08-18T01:17:46.411Z,81.93
2022-08-18T01:19:06.712Z,80.13
2022-08-18T01:20:31.238Z,85.53
2022-08-18T01:21:53.216Z,92.47
2022-08-18T01:23:04.594Z,89.20
2022-08-18T01:24:11.409Z,89.00
2022-08-18T01:25:32.834Z,94.67
2022-08-18T01:26:37.524Z,97.40
2022-08-18T01:27:48.032Z,94.57
2022-08-18T01:28:50.579Z,90.20
2022-08-18T01:29:53.353Z,94.77
2022-08-18T01:30:58.257Z,90.23
2022-08-18T01:32:00.866Z,89.80
2022-08-18T01:33:02.540Z,86.73
2022-08-18T01:34:06.232Z,89.53
2022-08-18T01:35:10.440Z,89.13
2022-08-18T01:36:22.227Z,85.50
2022-08-18T01:37:25.389Z,84.37
2022-08-18T01:38:32.171Z,84.60
2022-08-18T01:41:01.000Z,89.13
2022-08-18T01:41:22.377Z,86.53
2022-08-18T01:42:19.361Z,89.57
2022-08-18T01:43:21.217Z,92.43
2022-08-18T01:44:23.889Z,89.97
2022-08-18T01:45:26.411Z,100.00
2022-08-18T01:46:30.775Z,88.10
2022-08-18T01:47:48.093Z,89.47
2022-08-18T01:48:51.586Z,85.70
2022-08-18T01:49:53.315Z,92.03
2022-08-18T01:50:56.919Z,84.03
2022-08-18T01:51:58.545Z,89.20
2022-08-18T01:53:01.572Z,89.30
2022-08-18T01:54:05.434Z,81.43
2022-08-18T01:55:08.808Z,84.27
2022-08-18T01:56:10.789Z,86.87
2022-08-18T01:57:16.737Z,77.97
2022-08-18T01:58:18.369Z,84.07
2022-08-18T01:59:20.959Z,81.63
2022-08-18T02:00:22.801Z,80.63
2022-08-18T02:01:35.311Z,80.23
2022-08-18T02:02:41.881Z,80.80
2022-08-18T02:03:49.090Z,76.97
2022-08-18T02:04:55.145Z,70.77
2022-08-18T02:06:00.881Z,70.97
2022-08-18T02:07:06.226Z,74.00
2022-08-18T02:08:08.263Z,72.93
2022-08-18T02:09:12.774Z,69.83
2022-08-18T02:10:16.473Z,70.57
2022-08-18T02:11:19.441Z,66.80
2022-08-18T02:12:21.097Z,72.20
2022-08-18T02:13:24.001Z,64.57
2022-08-18T02:14:27.580Z,69.07
2022-08-18T02:15:30.442Z,67.80
2022-08-18T02:16:33.425Z,63.97
2022-08-18T02:17:39.002Z,70.93
2022-08-18T02:18:47.623Z,71.17
2022-08-18T02:19:51.220Z,66.43
2022-08-18T02:20:52.904Z,74.47
2022-08-18T02:21:55.595Z,70.20
2022-08-18T02:22:58.580Z,75.93
2022-08-18T02:24:02.441Z,74.90
2022-08-18T02:25:07.401Z,72.33
2022-08-18T02:26:14.710Z,73.70
2022-08-18T02:27:16.780Z,72.57
2022-08-18T02:28:19.386Z,76.87
2022-08-18T02:29:21.066Z,72.70
2022-08-18T02:30:24.019Z,71.50
2022-08-18T02:31:35.999Z,74.27
2022-08-18T02:32:38.919Z,69.80
2022-08-18T02:33:41.149Z,72.20
2022-08-18T02:34:54.280Z,75.57
2022-08-18T02:35:56.084Z,72.20
2022-08-18T02:37:00.882Z,68.57
2022-08-18T02:38:04.226Z,71.23
2022-08-18T02:39:09.510Z,67.50
2022-08-18T02:40:14.872Z,74.57
2022-08-18T02:41:18.376Z,64.17
2022-08-18T02:42:20.069Z,66.53
2022-08-18T02:43:22.712Z,68.50
2022-08-18T02:44:24.340Z,72.00
2022-08-18T02:45:27.169Z,70.67
2022-08-18T02:46:30.243Z,65.60
2022-08-18T02:47:34.004Z,69.40
2022-08-18T02:48:35.642Z,73.37
2022-08-18T02:49:38.231Z,70.43
2022-08-18T02:50:47.109Z,86.63
2022-08-18T02:51:52.012Z,69.10
2022-08-18T02:52:54.509Z,67.40
2022-08-18T02:53:59.405Z,80.47
2022-08-18T02:55:02.414Z,70.97
2022-08-18T02:56:32.722Z,71.67
2022-08-18T02:57:44.601Z,74.13
2022-08-18T02:58:48.007Z,74.80
2022-08-18T02:59:49.737Z,70.70
2022-08-18T03:00:52.686Z,74.47
2022-08-18T03:01:56.187Z,77.07
2022-08-18T03:02:58.999Z,72.73
2022-08-18T03:04:01.067Z,70.87
2022-08-18T03:05:03.979Z,74.00
2022-08-18T03:06:06.305Z,74.27
2022-08-18T03:07:09.430Z,68.97
2022-08-18T03:08:11.523Z,72.53
2022-08-18T03:09:16.175Z,71.10
2022-08-18T03:10:32.365Z,70.73
2022-08-18T03:11:38.949Z,69.20
2022-08-18T03:12:41.950Z,72.00
2022-08-18T03:13:45.588Z,66.80
2022-08-18T03:14:47.331Z,66.47
2022-08-18T03:15:53.412Z,63.20
2022-08-18T03:16:59.752Z,66.33
2022-08-18T03:18:02.007Z,68.53
2022-08-18T03:19:04.872Z,69.70
2022-08-18T03:20:07.873Z,62.47
2022-08-18T03:21:14.196Z,69.73
2022-08-18T03:22:28.145Z,61.53
2022-08-18T03:23:32.376Z,63.60
2022-08-18T03:24:34.907Z,55.47
2022-08-18T03:25:43.913Z,53.87
2022-08-18T03:26:47.511Z,56.70
2022-08-18T03:27:50.158Z,55.00
2022-08-18T03:28:54.529Z,58.10
2022-08-18T03:29:58.730Z,56.83
2022-08-18T03:31:00.608Z,60.90
2022-08-18T03:32:04.394Z,48.83
2022-08-18T03:33:06.177Z,54.00
2022-08-18T03:34:09.385Z,53.80
2022-08-18T03:35:11.104Z,52.93
2022-08-18T03:36:17.064Z,54.20
2022-08-18T03:37:18.682Z,55.07
2022-08-18T03:38:21.585Z,52.63
2022-08-18T03:39:24.974Z,53.73
2022-08-18T03:40:26.554Z,51.57
2022-08-18T03:41:43.944Z,52.73
2022-08-18T03:42:54.784Z,50.77
2022-08-18T03:43:58.333Z,46.70
2022-08-18T03:44:59.989Z,50.70
2022-08-18T03:46:06.509Z,49.67
2022-08-18T03:47:10.257Z,50.57
2022-08-18T03:48:12.843Z,53.77
2022-08-18T03:49:14.682Z,51.30
2022-08-18T03:50:18.696Z,51.87
2022-08-18T03:51:24.701Z,51.20
2022-08-18T03:52:27.544Z,47.27
2022-08-18T03:53:29.176Z,52.93
2022-08-18T03:54:33.341Z,48.80
2022-08-18T03:55:34.944Z,50.07
2022-08-18T03:56:39.444Z,47.80
2022-08-18T03:57:41.562Z,49.80
2022-08-18T03:58:47.280Z,49.83
2022-08-18T03:59:49.448Z,47.20
2022-08-18T04:00:52.043Z,52.00
2022-08-18T04:01:55.396Z,50.37
2022-08-18T04:02:59.402Z,51.17
2022-08-18T04:04:03.466Z,51.17
2022-08-18T04:05:07.915Z,49.10
2022-08-18T04:06:16.219Z,50.60
2022-08-18T04:07:32.625Z,48.37
2022-08-18T04:08:34.212Z,51.37
2022-08-18T04:09:38.698Z,47.70
2022-08-18T04:10:40.561Z,49.17
2022-08-18T04:11:44.829Z,44.30
2022-08-18T04:12:46.784Z,51.97
2022-08-18T04:13:51.056Z,48.23
2022-08-18T04:14:53.329Z,50.10
2022-08-18T04:15:55.941Z,56.27
2022-08-18T04:16:58.158Z,49.07
2022-08-18T04:18:04.184Z,47.07
2022-08-18T04:19:07.669Z,44.80
2022-08-18T04:20:12.814Z,49.80
2022-08-18T04:21:14.708Z,48.57
2022-08-18T04:22:18.510Z,50.83
2022-08-18T04:23:21.220Z,50.30
2022-08-18T04:24:24.036Z,42.80
2022-08-18T04:25:32.183Z,44.17
2022-08-18T04:26:38.079Z,46.53
2022-08-18T04:27:42.684Z,47.37
2022-08-18T04:28:45.375Z,46.63
2022-08-18T04:29:49.419Z,50.27
2022-08-18T04:30:51.589Z,46.80
2022-08-18T04:31:54.167Z,45.97
2022-08-18T04:32:55.785Z,44.80
2022-08-18T04:34:00.084Z,50.17
2022-08-18T04:35:02.894Z,46.60
2022-08-18T04:36:11.336Z,48.07
2022-08-18T04:37:13.844Z,53.60
2022-08-18T04:38:16.638Z,49.63
2022-08-18T04:39:18.445Z,51.30
2022-08-18T04:40:25.061Z,54.60
2022-08-18T04:41:27.875Z,52.17
2022-08-18T04:42:30.569Z,49.87
2022-08-18T04:43:33.603Z,47.63
2022-08-18T04:44:37.764Z,49.23
2022-08-18T04:45:41.185Z,52.97
2022-08-18T04:46:47.448Z,49.87
2022-08-18T04:47:50.754Z,50.37
2022-08-18T04:48:58.345Z,52.60
2022-08-18T04:50:00.911Z,47.63
2022-08-18T04:51:06.853Z,53.60
2022-08-18T04:52:39.636Z,52.37
2022-08-18T04:53:47.984Z,48.90
2022-08-18T04:54:50.125Z,49.53
2022-08-18T04:55:54.197Z,58.93
2022-08-18T04:56:56.792Z,51.57
2022-08-18T04:57:58.931Z,51.43
2022-08-18T04:59:04.526Z,56.80
2022-08-18T05:00:08.572Z,61.90
2022-08-18T05:01:17.447Z,57.17
2022-08-18T05:02:21.494Z,50.03
2022-08-18T05:03:26.761Z,52.83
2022-08-18T05:04:30.205Z,56.97
2022-08-18T05:05:32.807Z,51.83
2022-08-18T05:06:35.518Z,55.37
2022-08-18T05:07:44.738Z,56.73
2022-08-18T05:08:48.225Z,53.63
2022-08-18T05:09:51.899Z,54.87
2022-08-18T05:10:54.294Z,60.70
2022-08-18T05:11:56.951Z,53.83
2022-08-18T05:12:58.529Z,52.63
2022-08-18T05:14:02.069Z,57.00
2022-08-18T05:15:06.593Z,51.90
2022-08-18T05:16:11.122Z,52.97
2022-08-18T05:17:17.539Z,57.13
2022-08-18T05:18:22.704Z,56.90
2022-08-18T05:19:27.102Z,55.43
2022-08-18T05:20:29.681Z,61.23
2022-08-18T05:21:33.737Z,57.00
2022-08-18T05:22:39.764Z,56.63
2022-08-18T05:23:43.240Z,61.77
2022-08-18T05:24:45.116Z,54.57
2022-08-18T05:25:48.241Z,60.13
2022-08-18T05:26:56.220Z,55.10
2022-08-18T05:27:58.078Z,61.03
2022-08-18T05:29:18.003Z,52.30
2022-08-18T05:30:22.601Z,54.60
2022-08-18T05:31:28.482Z,55.37
2022-08-18T05:32:47.347Z,54.27
2022-08-18T05:33:55.513Z,59.33
2022-08-18T05:34:57.451Z,50.10
2022-08-18T05:36:04.819Z,56.50
2022-08-18T05:37:24.059Z,60.20
2022-08-18T05:38:42.289Z,55.13
2022-08-18T05:39:56.016Z,51.00
2022-08-18T05:41:14.341Z,54.10
2022-08-18T05:42:19.853Z,52.60
2022-08-18T05:43:22.494Z,60.03
2022-08-18T05:44:31.500Z,57.00
2022-08-18T05:45:35.319Z,62.83
2022-08-18T05:46:43.570Z,59.13
2022-08-18T05:47:47.992Z,65.23
2022-08-18T05:48:50.587Z,59.67
2022-08-18T05:49:54.627Z,56.90
2022-08-18T05:50:57.961Z,60.53
2022-08-18T05:52:04.335Z,56.63
2022-08-18T05:53:13.456Z,59.57
2022-08-18T05:54:37.769Z,58.87
2022-08-18T05:56:00.755Z,61.67
2022-08-18T05:57:08.398Z,56.93
2022-08-18T05:58:15.769Z,60.03
2022-08-18T05:59:26.083Z,59.60
2022-08-18T06:00:30.940Z,64.67
2022-08-18T06:01:38.715Z,63.27
2022-08-18T06:02:48.829Z,59.33
2022-08-18T06:03:55.464Z,68.00
2022-08-18T06:05:01.095Z,62.47
2022-08-18T06:06:08.944Z,58.77
2022-08-18T06:07:33.683Z,63.63
2022-08-18T06:08:40.590Z,62.63
2022-08-18T06:09:48.435Z,69.03
2022-08-18T06:10:51.584Z,68.13
2022-08-18T06:11:59.487Z,63.43
2022-08-18T06:13:03.678Z,64.17
2022-08-18T06:14:05.656Z,64.40
2022-08-18T06:15:14.428Z,65.70
2022-08-18T06:16:25.241Z,66.90
2022-08-18T06:17:43.985Z,69.70
2022-08-18T06:18:54.372Z,68.37
2022-08-18T06:20:04.308Z,62.00
2022-08-18T06:21:16.727Z,67.33
2022-08-18T06:22:31.268Z,63.37
2022-08-18T06:23:42.622Z,58.57
2022-08-18T06:24:51.817Z,64.53
2022-08-18T06:26:05.096Z,61.10
2022-08-18T06:27:14.910Z,62.47
2022-08-18T06:28:18.114Z,65.77
2022-08-18T06:29:34.425Z,65.00
2022-08-18T06:30:49.383Z,63.27
2022-08-18T06:32:01.293Z,64.70
2022-08-18T06:33:18.405Z,77.50
2022-08-18T06:34:37.284Z,65.00
2022-08-18T06:35:45.643Z,62.20
2022-08-18T06:36:55.375Z,60.30
2022-08-18T06:38:28.029Z,62.60
2022-08-18T06:39:36.497Z,64.53
2022-08-18T06:40:38.287Z,62.77
2022-08-18T06:41:45.359Z,57.10
2022-08-18T06:42:48.133Z,58.10
2022-08-18T06:44:01.199Z,55.87
2022-08-18T06:45:11.363Z,62.53
2022-08-18T06:46:17.624Z,56.67
2022-08-18T06:47:32.595Z,55.57
2022-08-18T06:48:40.487Z,58.83
2022-08-18T06:49:51.159Z,70.50
2022-08-18T06:50:55.978Z,70.57
2022-08-18T06:51:58.625Z,60.80
2022-08-18T06:53:04.973Z,63.13
2022-08-18T06:54:09.402Z,60.83
2022-08-18T06:55:17.432Z,66.57
2022-08-18T06:56:27.346Z,66.50
2022-08-18T06:57:32.781Z,64.97
2022-08-18T06:58:35.462Z,57.20
2022-08-18T06:59:38.305Z,58.73
2022-08-18T07:00:46.247Z,71.37
2022-08-18T07:01:54.797Z,65.00
2022-08-18T07:03:01.754Z,66.40
2022-08-18T07:04:03.626Z,62.83
2022-08-18T07:05:09.790Z,56.93
2022-08-18T07:06:31.420Z,64.70
2022-08-18T07:07:39.364Z,58.23
2022-08-18T07:08:54.271Z,53.20
2022-08-18T07:09:56.838Z,59.70
2022-08-18T07:11:12.600Z,56.00
2022-08-18T07:12:22.525Z,64.27
2022-08-18T07:13:27.199Z,64.80
2022-08-18T07:14:29.862Z,64.50
2022-08-18T07:15:32.163Z,59.67
2022-08-18T07:16:57.189Z,60.57
2022-08-18T07:18:06.139Z,58.97
2022-08-18T07:19:08.643Z,62.23
2022-08-18T07:20:21.787Z,64.37
2022-08-18T07:21:33.172Z,59.43
2022-08-18T07:23:07.880Z,66.17
2022-08-18T07:24:25.138Z,58.90
2022-08-18T07:25:32.386Z,57.57
2022-08-18T07:27:00.020Z,61.10
2022-08-18T07:28:02.794Z,61.17
2022-08-18T07:29:13.558Z,57.80
2022-08-18T07:30:29.422Z,58.87
2022-08-18T07:31:44.006Z,57.27
2022-08-18T07:32:49.733Z,61.10
2022-08-18T07:33:58.484Z,54.80
2022-08-18T07:35:04.464Z,53.17
2022-08-18T07:36:10.147Z,56.47
2022-08-18T07:37:18.543Z,57.57
2022-08-18T07:38:44.263Z,56.23
2022-08-18T07:39:52.604Z,51.30
2022-08-18T07:40:58.864Z,55.90
2022-08-18T07:42:07.351Z,49.10
2022-08-18T07:43:17.139Z,51.63
2022-08-18T07:44:26.024Z,51.13
2022-08-18T07:45:32.484Z,52.13
2022-08-18T07:46:45.165Z,58.47
2022-08-18T07:47:53.989Z,50.50
2022-08-18T07:48:58.732Z,51.83
2022-08-18T07:50:31.570Z,57.40
2022-08-18T07:51:43.424Z,49.73
2022-08-18T07:52:52.258Z,47.03
2022-08-18T07:53:59.582Z,51.43
2022-08-18T07:55:10.724Z,56.53
2022-08-18T07:56:19.922Z,45.93
2022-08-18T07:57:35.365Z,45.53
2022-08-18T07:58:49.992Z,46.37
2022-08-18T08:00:02.627Z,48.10
2022-08-18T08:01:17.646Z,43.00
2022-08-18T08:02:32.137Z,50.00
2022-08-18T08:03:42.681Z,48.37
2022-08-18T08:05:04.798Z,45.77
2022-08-18T08:06:13.241Z,49.93
2022-08-18T08:07:24.859Z,56.37
2022-08-18T08:08:33.189Z,50.03
2022-08-18T08:09:51.199Z,56.30
2022-08-18T08:11:08.535Z,59.83
2022-08-18T08:12:22.987Z,50.43
2022-08-18T08:13:54.543Z,50.40
2022-08-18T08:15:10.237Z,54.30
2022-08-18T08:16:20.052Z,51.97
2022-08-18T08:17:30.562Z,54.87
2022-08-18T08:18:42.139Z,54.10
2022-08-18T08:20:01.638Z,48.23
2022-08-18T08:21:10.801Z,44.60
2022-08-18T08:22:20.529Z,41.17
2022-08-18T08:23:30.147Z,40.13
2022-08-18T08:24:42.044Z,43.83
2022-08-18T08:25:56.801Z,43.13
2022-08-18T08:27:06.198Z,44.80
2022-08-18T08:28:15.616Z,45.20
2022-08-18T08:29:26.571Z,42.63
2022-08-18T08:30:32.416Z,47.73
2022-08-18T08:31:46.323Z,45.37
2022-08-18T08:33:02.875Z,44.27
2022-08-18T08:34:13.320Z,43.83
2022-08-18T08:35:48.402Z,47.03
2022-08-18T08:36:45.648Z,42.43
2022-08-18T08:37:54.032Z,45.60
2022-08-18T08:39:05.674Z,42.00
2022-08-18T08:40:14.122Z,46.63
2022-08-18T08:41:25.680Z,47.60
2022-08-18T08:42:40.914Z,48.87
2022-08-18T08:43:47.813Z,43.83
2022-08-18T08:44:59.790Z,45.73
2022-08-18T08:46:11.109Z,46.00
2022-08-18T08:47:21.828Z,44.40
2022-08-18T08:48:31.012Z,43.40
2022-08-18T08:49:40.157Z,44.33
2022-08-18T08:50:49.873Z,43.37
2022-08-18T08:51:57.922Z,40.60
2022-08-18T08:53:07.182Z,40.47
2022-08-18T08:54:14.122Z,42.40
2022-08-18T08:55:25.324Z,31.23
2022-08-18T08:56:31.061Z,35.97
2022-08-18T08:57:38.092Z,33.53
2022-08-18T08:58:44.498Z,26.80
2022-08-18T08:59:49.696Z,26.23
2022-08-18T09:00:52.587Z,28.70
2022-08-18T09:02:08.492Z,25.20
2022-08-18T09:03:30.593Z,22.97
2022-08-18T09:04:54.225Z,27.33
2022-08-18T09:06:22.686Z,24.00
2022-08-18T09:07:39.626Z,20.90
2022-08-18T09:09:14.361Z,23.70
2022-08-18T09:10:41.707Z,23.07
2022-08-18T09:12:21.562Z,16.87
2022-08-18T09:13:50.049Z,24.37
2022-08-18T09:15:34.806Z,18.07
2022-08-18T09:16:49.162Z,22.83
2022-08-18T09:18:12.358Z,18.47
2022-08-18T09:19:36.737Z,24.40
2022-08-18T09:20:59.065Z,18.73
2022-08-18T09:22:09.012Z,20.63
2022-08-18T09:23:14.703Z,19.13
2022-08-18T09:24:25.718Z,19.67
2022-08-18T09:25:43.501Z,21.83
2022-08-18T09:26:50.772Z,20.63
2022-08-18T09:28:11.861Z,17.50
2022-08-18T09:29:21.746Z,17.60
2022-08-18T09:30:45.195Z,16.40
2022-08-18T09:32:12.488Z,16.37
2022-08-18T09:33:20.371Z,14.23
2022-08-18T09:34:47.236Z,19.40
2022-08-18T09:36:26.039Z,14.10
2022-08-18T09:37:34.592Z,15.70
2022-08-18T09:39:01.739Z,15.30
2022-08-18T09:41:01.180Z,14.53
2022-08-18T09:41:59.454Z,25.47
2022-08-18T09:43:12.183Z,19.33
2022-08-18T09:44:37.050Z,17.10
2022-08-18T09:45:57.711Z,13.23
2022-08-18T09:47:01.331Z,21.70
2022-08-18T09:48:25.462Z,15.73
2022-08-18T09:49:47.792Z,17.47
2022-08-18T09:51:23.432Z,15.07
2022-08-18T09:52:58.864Z,16.30
2022-08-18T09:54:21.082Z,17.03
2022-08-18T09:57:24.210Z,16.87
2022-08-18T09:58:55.611Z,14.40
2022-08-18T10:00:28.313Z,16.87
2022-08-18T10:01:41.487Z,16.27
2022-08-18T10:03:25.920Z,13.87
2022-08-18T10:04:35.577Z,13.00
2022-08-18T10:05:38.399Z,19.33
2022-08-18T10:06:48.423Z,16.43
2022-08-18T10:07:55.935Z,16.70
2022-08-18T10:09:26.765Z,13.60
2022-08-18T10:11:02.256Z,16.93
2022-08-18T10:12:27.530Z,15.57
2022-08-18T10:13:48.355Z,14.13
2022-08-18T10:15:12.172Z,14.53
2022-08-18T10:16:22.224Z,17.43
2022-08-18T10:17:39.861Z,14.00
2022-08-18T10:19:01.293Z,14.80
2022-08-18T10:20:25.803Z,14.63
2022-08-18T10:22:55.343Z,15.03
2022-08-18T10:24:35.063Z,14.53
2022-08-18T10:25:47.495Z,11.87
2022-08-18T10:27:27.926Z,14.20
2022-08-18T10:28:57.283Z,14.90
2022-08-18T10:29:59.598Z,17.03
2022-08-18T10:31:09.846Z,15.13
2022-08-18T10:32:44.153Z,13.57
2022-08-18T10:34:00.797Z,15.00
2022-08-18T10:35:05.854Z,15.80
2022-08-18T10:36:11.033Z,13.97
2022-08-18T10:37:17.070Z,14.30
2022-08-18T10:38:32.526Z,14.17
2022-08-18T10:39:47.456Z,15.30
2022-08-18T10:41:00.051Z,14.53
2022-08-18T10:42:19.265Z,14.40
2022-08-18T10:43:55.005Z,14.37
2022-08-18T10:45:07.147Z,18.00
2022-08-18T10:46:25.268Z,15.83
2022-08-18T10:47:33.432Z,21.47
2022-08-18T10:48:35.745Z,15.90
2022-08-18T10:49:49.456Z,15.03
2022-08-18T10:50:58.582Z,14.27
2022-08-18T10:52:33.985Z,18.10
2022-08-18T10:53:45.413Z,15.83
2022-08-18T10:55:06.265Z,14.90
2022-08-18T10:56:34.096Z,16.57
2022-08-18T10:57:51.100Z,12.83
2022-08-18T10:59:16.434Z,13.37
2022-08-18T11:00:21.966Z,14.70
2022-08-18T11:02:02.436Z,19.03
2022-08-18T11:04:38.717Z,14.53
2022-08-18T11:05:42.044Z,16.83
2022-08-18T11:06:50.274Z,14.00
2022-08-18T11:07:58.520Z,13.70
2022-08-18T11:09:02.854Z,18.27
2022-08-18T11:10:57.828Z,14.03
2022-08-18T11:13:15.914Z,13.97
2022-08-18T11:14:50.206Z,12.83
2022-08-18T11:16:04.309Z,13.10
2022-08-18T11:17:22.829Z,14.73
2022-08-18T11:18:42.847Z,15.60
2022-08-18T11:19:52.729Z,19.20
2022-08-18T11:21:22.332Z,12.33
2022-08-18T11:22:32.423Z,13.40
2022-08-18T11:23:37.747Z,13.13
2022-08-18T11:24:46.393Z,18.33
2022-08-18T11:25:53.229Z,15.60
2022-08-18T11:26:59.653Z,11.30
2022-08-18T11:28:03.454Z,12.43
2022-08-18T11:29:28.937Z,12.57
2022-08-18T11:30:36.884Z,15.20
2022-08-18T11:31:40.453Z,13.90
2022-08-18T11:32:55.323Z,14.27
2022-08-18T11:33:57.441Z,12.10
2022-08-18T11:35:04.018Z,13.20
2022-08-18T11:36:06.809Z,13.07
2022-08-18T11:37:20.857Z,15.30
2022-08-18T11:38:23.453Z,12.80
2022-08-18T11:39:37.726Z,13.67
2022-08-18T11:42:15.810Z,13.03
2022-08-18T11:43:29.915Z,12.57
2022-08-18T11:44:41.181Z,13.17
2022-08-18T11:45:54.715Z,15.80
2022-08-18T11:47:10.447Z,14.70
2022-08-18T11:48:21.027Z,14.13
2022-08-18T11:49:33.964Z,15.87
2022-08-18T11:50:54.402Z,18.50
2022-08-18T11:53:26.605Z,11.20
2022-08-18T11:54:39.223Z,17.47
2022-08-18T11:56:30.809Z,16.97
2022-08-18T11:57:50.039Z,17.53
2022-08-18T11:58:56.575Z,23.90
2022-08-18T12:00:00.448Z,15.67
2022-08-18T12:01:09.324Z,15.67
2022-08-18T12:02:16.735Z,16.53
2022-08-18T12:03:28.483Z,18.93
2022-08-18T12:04:38.376Z,21.50
2022-08-18T12:05:54.025Z,20.30
2022-08-18T12:07:04.603Z,21.50
2022-08-18T12:08:33.539Z,24.13
2022-08-18T12:11:26.680Z,23.60
2022-08-18T12:12:32.543Z,20.50
2022-08-18T12:13:34.263Z,20.50
2022-08-18T12:14:58.917Z,20.00
2022-08-18T12:16:11.309Z,20.30
2022-08-18T12:17:15.327Z,20.60
2022-08-18T12:18:28.107Z,18.07
2022-08-18T12:19:35.894Z,22.50
2022-08-18T12:20:37.576Z,19.43
2022-08-18T12:21:41.697Z,21.00
2022-08-18T12:22:45.398Z,23.40
2022-08-18T12:23:52.197Z,22.17
2022-08-18T12:24:54.724Z,22.50
2022-08-18T12:25:57.410Z,24.50
2022-08-18T12:27:01.572Z,26.53
2022-08-18T12:28:15.299Z,27.60
2022-08-18T12:29:18.695Z,25.13
2022-08-18T12:30:23.643Z,26.30
2022-08-18T12:31:28.931Z,22.40
2022-08-18T12:32:50.626Z,25.13
2022-08-18T12:34:00.663Z,22.20
2022-08-18T12:35:09.255Z,20.47
2022-08-18T12:36:13.549Z,21.90
2022-08-18T12:37:56.650Z,21.90
2022-08-18T12:38:44.092Z,25.13
2022-08-18T12:39:55.325Z,27.60
2022-08-18T12:40:58.026Z,23.30
2022-08-18T12:41:59.641Z,22.40
2022-08-18T12:43:02.363Z,24.00
2022-08-18T12:44:09.885Z,23.90
2022-08-18T12:45:15.390Z,25.60
2022-08-18T12:46:18.512Z,25.23
2022-08-18T12:47:22.286Z,31.67
2022-08-18T12:48:28.087Z,25.30
2022-08-18T12:49:29.713Z,20.70
2022-08-18T12:50:36.301Z,22.20
2022-08-18T12:51:40.434Z,19.97
2022-08-18T12:52:44.099Z,22.23
2022-08-18T12:53:58.203Z,20.73
2022-08-18T12:55:03.222Z,20.13
2022-08-18T12:56:08.795Z,21.90
2022-08-18T12:57:33.092Z,20.90
2022-08-18T12:58:36.550Z,23.17
2022-08-18T12:59:40.013Z,22.87
2022-08-18T13:00:44.503Z,20.20
2022-08-18T13:01:47.217Z,19.80
2022-08-18T13:02:49.870Z,20.67
2022-08-18T13:04:12.781Z,22.10
2022-08-18T13:05:16.585Z,23.80
2022-08-18T13:06:18.278Z,22.67
2022-08-18T13:07:21.175Z,21.30
2022-08-18T13:08:30.650Z,22.50
2022-08-18T13:09:52.555Z,21.13
2022-08-18T13:10:56.409Z,21.43
2022-08-18T13:12:00.285Z,20.53
2022-08-18T13:13:03.177Z,23.10
2022-08-18T13:14:08.851Z,23.10
2022-08-18T13:15:12.547Z,26.30
2022-08-18T13:16:30.306Z,24.67
2022-08-18T13:17:34.473Z,21.77
2022-08-18T13:18:36.880Z,30.10
2022-08-18T13:19:40.900Z,26.47
2022-08-18T13:20:45.075Z,23.53
2022-08-18T13:21:47.572Z,28.13
2022-08-18T13:22:52.681Z,22.67
2022-08-18T13:23:55.067Z,28.33
2022-08-18T13:24:57.761Z,24.87
2022-08-18T13:26:03.310Z,24.10
2022-08-18T13:27:18.460Z,23.30
2022-08-18T13:28:26.032Z,23.40
2022-08-18T13:29:32.268Z,22.50
2022-08-18T13:30:35.752Z,36.80
2022-08-18T13:31:38.683Z,22.50
2022-08-18T13:32:59.374Z,24.90
2022-08-18T13:34:04.070Z,20.37
2022-08-18T13:35:13.571Z,21.27
2022-08-18T13:36:16.611Z,21.97
2022-08-18T13:37:20.524Z,22.50
2022-08-18T13:38:27.661Z,22.37
2022-08-18T13:39:33.626Z,20.57
2022-08-18T13:40:38.250Z,18.27
2022-08-18T13:41:51.743Z,23.80
2022-08-18T13:42:55.361Z,22.77
2022-08-18T13:43:58.796Z,20.50
2022-08-18T13:45:24.698Z,24.10
2022-08-18T13:46:30.951Z,23.77
2022-08-18T13:47:38.382Z,23.50
2022-08-18T13:48:41.998Z,23.73
2022-08-18T13:49:43.705Z,26.77
2022-08-18T13:51:03.949Z,22.50
2022-08-18T13:52:12.132Z,20.23
2022-08-18T13:53:31.363Z,22.57
2022-08-18T13:54:35.472Z,22.63
2022-08-18T13:55:38.436Z,23.93
2022-08-18T13:56:40.064Z,23.47
2022-08-18T13:57:48.283Z,20.13
2022-08-18T13:58:53.966Z,16.07
2022-08-18T13:59:56.582Z,18.43
2022-08-18T14:01:22.821Z,17.00
2022-08-18T14:02:26.835Z,19.33
2022-08-18T14:03:42.758Z,14.13
2022-08-18T14:04:54.818Z,13.57
2022-08-18T14:06:01.493Z,13.93
2022-08-18T14:07:10.981Z,12.90
2022-08-18T14:08:19.243Z,13.10
2022-08-18T14:09:36.617Z,15.77
2022-08-18T14:10:41.027Z,11.80
2022-08-18T14:11:44.314Z,11.90
2022-08-18T14:12:56.646Z,10.93
2022-08-18T14:13:58.861Z,10.43
2022-08-18T14:15:01.861Z,11.13
2022-08-18T14:16:04.573Z,10.67
2022-08-18T14:17:07.216Z,8.93
2022-08-18T14:18:11.037Z,9.43
2022-08-18T14:19:36.752Z,9.30
2022-08-18T14:21:00.052Z,8.20
2022-08-18T14:22:19.905Z,9.13
2022-08-18T14:23:40.248Z,9.00
2022-08-18T14:25:12.200Z,9.93
2022-08-18T14:26:32.288Z,9.30
2022-08-18T14:27:37.580Z,8.53
2022-08-18T14:28:41.221Z,8.20
2022-08-18T14:29:47.788Z,8.50
2022-08-18T14:30:54.591Z,10.40
2022-08-18T14:31:57.484Z,9.07
2022-08-18T14:33:06.925Z,9.80
2022-08-18T14:34:14.263Z,8.90
2022-08-18T14:36:04.304Z,8.80
2022-08-18T14:36:46.709Z,9.53
2022-08-18T14:37:52.685Z,10.80
2022-08-18T14:39:00.118Z,9.33
2022-08-18T14:40:04.290Z,10.50
2022-08-18T14:41:11.928Z,8.90
2022-08-18T14:42:19.102Z,9.57
2022-08-18T14:43:24.970Z,14.47
2022-08-18T14:44:32.616Z,11.50
2022-08-18T14:45:36.180Z,9.67
2022-08-18T14:46:37.975Z,9.23
2022-08-18T14:47:43.795Z,10.20
2022-08-18T14:48:47.651Z,10.00
2022-08-18T14:49:50.417Z,8.87
2022-08-18T14:50:55.294Z,11.57
2022-08-18T14:51:59.256Z,11.10
2022-08-18T14:53:05.228Z,10.30
2022-08-18T14:54:07.860Z,12.50
2022-08-18T14:55:11.342Z,9.30
2022-08-18T14:56:14.356Z,9.20
2022-08-18T14:57:18.560Z,10.17
2022-08-18T14:58:22.227Z,9.20
2022-08-18T14:59:28.377Z,10.67
2022-08-18T15:00:31.110Z,10.90
2022-08-18T15:01:34.983Z,9.90
2022-08-18T15:02:38.477Z,11.97